Time;durP1;ratioP1;P1;durP2;ratioP2;P2;SDS_P1;SDS_P2;PMS_P1;PMS_P2;Temp;Humidity;BMP_temperature;BMP_pressure;BME280_temperature;BME280_humidity;BME280_pressure;Samples;Min_cycle;Max_cycle;Signal;HPM_P1;HPM_P2
2021/03/11 00:00:52;;;;;;;16.97;15.13;;;10.60;99.90;;;;;;4971700;28;20686;-73
2021/03/11 00:03:20;;;;;;;20.17;15.43;;;10.60;99.90;;;;;;4972269;28;20682;-75
2021/03/11 00:05:47;;;;;;;19.80;13.87;;;10.60;99.90;;;;;;4972599;28;20214;-75
2021/03/11 00:08:14;;;;;;;18.90;15.33;;;10.60;99.90;;;;;;4972120;28;20210;-78
2021/03/11 00:10:40;;;;;;;22.80;15.90;;;10.60;99.90;;;;;;4972103;28;20633;-74
2021/03/11 00:13:08;;;;;;;16.20;14.30;;;10.60;99.90;;;;;;4971613;28;20213;-75
2021/03/11 00:15:37;;;;;;;17.33;14.17;;;10.60;99.90;;;;;;4972485;28;20217;-74
2021/03/11 00:18:04;;;;;;;21.40;16.20;;;10.60;99.90;;;;;;4971509;28;20236;-77
2021/03/11 00:20:31;;;;;;;23.77;16.23;;;10.60;99.90;;;;;;4972392;28;20692;-73
2021/03/11 00:22:57;;;;;;;20.20;14.33;;;10.60;99.90;;;;;;4971728;28;20205;-71
2021/03/11 00:25:27;;;;;;;18.00;13.80;;;10.60;99.90;;;;;;4972126;28;20210;-72
2021/03/11 00:27:53;;;;;;;23.67;16.60;;;10.70;99.90;;;;;;4971689;28;20350;-73
2021/03/11 00:30:21;;;;;;;17.90;13.60;;;10.60;99.90;;;;;;4971889;28;20213;-69
2021/03/11 00:32:49;;;;;;;14.67;12.60;;;10.60;99.90;;;;;;4972232;28;20209;-75
2021/03/11 00:35:15;;;;;;;17.63;14.17;;;10.60;99.90;;;;;;4971475;28;20213;-72
2021/03/11 00:37:43;;;;;;;16.17;13.47;;;10.50;99.90;;;;;;4971583;28;20236;-69
2021/03/11 00:40:11;;;;;;;15.20;12.93;;;10.60;99.90;;;;;;4971376;28;20268;-70
2021/03/11 00:42:38;;;;;;;17.13;13.57;;;10.60;99.90;;;;;;4971647;28;20206;-71
2021/03/11 00:45:06;;;;;;;17.67;13.93;;;10.60;99.90;;;;;;4971422;28;20272;-74
2021/03/11 00:47:33;;;;;;;16.77;14.90;;;10.60;99.90;;;;;;4971371;28;20210;-73
2021/03/11 00:50:00;;;;;;;14.93;13.33;;;10.60;99.90;;;;;;4971388;28;20213;-72
2021/03/11 00:52:27;;;;;;;17.43;13.67;;;10.60;99.90;;;;;;4971425;28;20216;-72
2021/03/11 00:54:53;;;;;;;16.63;13.27;;;10.60;99.90;;;;;;4971504;28;20209;-72
2021/03/11 00:57:21;;;;;;;17.50;14.33;;;10.60;99.90;;;;;;4971320;28;20233;-72
2021/03/11 00:59:47;;;;;;;16.40;13.57;;;10.70;99.90;;;;;;4972214;28;20201;-74
2021/03/11 01:02:13;;;;;;;18.07;13.80;;;10.70;99.90;;;;;;4971363;28;20212;-74
2021/03/11 01:04:40;;;;;;;14.40;12.90;;;10.70;99.90;;;;;;4971281;28;20220;-74
2021/03/11 01:07:07;;;;;;;19.53;12.67;;;10.70;99.90;;;;;;4970990;28;20210;-74
2021/03/11 01:09:34;;;;;;;20.23;14.20;;;10.70;99.90;;;;;;4971304;28;20210;-74
2021/03/11 01:12:00;;;;;;;19.77;13.43;;;10.70;99.90;;;;;;4971425;28;20210;-75
2021/03/11 01:14:27;;;;;;;15.63;13.37;;;10.70;99.90;;;;;;4971419;28;20681;-75
2021/03/11 01:16:54;;;;;;;18.80;12.87;;;10.70;99.90;;;;;;4970838;28;20623;-74
2021/03/11 01:19:21;;;;;;;16.30;13.73;;;10.70;99.90;;;;;;4971246;28;20701;-74
2021/03/11 01:21:47;;;;;;;17.67;13.33;;;10.70;99.90;;;;;;4969896;28;20221;-74
2021/03/11 01:24:15;;;;;;;14.43;12.03;;;10.70;99.90;;;;;;4971390;28;20206;-73
2021/03/11 01:26:41;;;;;;;15.93;12.63;;;10.70;99.90;;;;;;4971516;28;20209;-74
2021/03/11 01:29:08;;;;;;;14.13;12.70;;;10.70;99.90;;;;;;4971080;28;20205;-74
2021/03/11 01:31:34;;;;;;;16.70;13.00;;;10.70;99.90;;;;;;4971123;28;20686;-74
2021/03/11 01:34:01;;;;;;;17.33;12.97;;;10.60;99.90;;;;;;4971035;28;20213;-74
2021/03/11 01:36:27;;;;;;;18.33;12.87;;;10.60;99.90;;;;;;4971276;28;20263;-74
2021/03/11 01:38:54;;;;;;;17.33;13.57;;;10.60;99.90;;;;;;4970451;28;20725;-73
2021/03/11 01:41:21;;;;;;;17.00;12.77;;;10.50;99.90;;;;;;4971203;28;20217;-73
2021/03/11 01:43:48;;;;;;;17.57;13.47;;;10.50;99.90;;;;;;4971812;28;20210;-74
2021/03/11 01:46:14;;;;;;;17.27;13.27;;;10.60;99.90;;;;;;4971075;28;20229;-75
2021/03/11 01:48:41;;;;;;;15.50;12.47;;;10.70;99.90;;;;;;4972765;28;20220;-74
2021/03/11 01:51:07;;;;;;;15.07;13.03;;;10.70;99.90;;;;;;4974372;28;20206;-77
2021/03/11 01:53:34;;;;;;;18.27;12.80;;;10.70;99.90;;;;;;4974949;28;20213;-74
2021/03/11 01:56:01;;;;;;;14.00;12.03;;;10.70;99.90;;;;;;4974236;28;20268;-74
2021/03/11 01:58:28;;;;;;;18.27;13.03;;;10.60;99.90;;;;;;4974666;28;20240;-77
2021/03/11 02:00:55;;;;;;;18.23;14.17;;;10.60;99.90;;;;;;4974257;28;20218;-74
2021/03/11 02:03:22;;;;;;;16.00;13.20;;;10.60;99.90;;;;;;4974435;28;20205;-73
2021/03/11 02:05:48;;;;;;;16.80;12.20;;;10.50;99.90;;;;;;4974911;28;20256;-73
2021/03/11 02:08:15;;;;;;;15.07;11.90;;;10.60;99.90;;;;;;4974208;28;20209;-73
2021/03/11 02:10:42;;;;;;;19.23;12.07;;;10.60;99.90;;;;;;4974691;28;20235;-77
2021/03/11 02:13:25;;;;;;;18.57;13.97;;;10.60;99.90;;;;;;4973730;28;20217;-78
2021/03/11 02:16:01;;;;;;;16.33;13.03;;;10.60;99.90;;;;;;4973761;28;20206;-72
2021/03/11 02:18:32;;;;;;;15.00;12.97;;;10.60;99.90;;;;;;4974141;28;20240;-73
2021/03/11 02:21:05;;;;;;;14.80;13.20;;;10.50;99.90;;;;;;4973979;28;20252;-72
2021/03/11 02:24:06;;;;;;;16.43;11.73;;;10.50;99.90;;;;;;4974206;28;20212;-74
2021/03/11 02:27:06;;;;;;;17.73;13.13;;;10.50;99.90;;;;;;4973848;28;20586;-76
2021/03/11 02:29:35;;;;;;;15.43;12.07;;;10.60;99.90;;;;;;4973767;28;20214;-73
2021/03/11 02:32:04;;;;;;;17.40;12.90;;;10.60;99.90;;;;;;4973717;28;20225;-75
2021/03/11 02:34:34;;;;;;;16.37;12.70;;;10.60;99.90;;;;;;4973940;28;20221;-74
2021/03/11 02:37:05;;;;;;;16.63;13.53;;;10.60;99.90;;;;;;4973540;28;20209;-73
2021/03/11 02:39:34;;;;;;;21.77;14.57;;;10.70;99.90;;;;;;4973773;28;20212;-71
2021/03/11 02:42:00;;;;;;;18.00;13.57;;;10.60;99.90;;;;;;4973040;28;20224;-80
2021/03/11 02:44:27;;;;;;;18.30;12.87;;;10.50;99.90;;;;;;4974031;28;20209;-71
2021/03/11 02:46:56;;;;;;;17.63;13.67;;;10.50;99.90;;;;;;4973496;28;20217;-74
2021/03/11 02:49:23;;;;;;;15.83;13.23;;;10.50;99.90;;;;;;4973716;28;20216;-76
2021/03/11 02:51:51;;;;;;;15.90;12.53;;;10.50;99.90;;;;;;4973616;28;20705;-76
2021/03/11 02:54:19;;;;;;;15.70;12.00;;;10.50;99.90;;;;;;4973875;28;20205;-76
2021/03/11 02:56:47;;;;;;;15.43;11.57;;;10.60;99.90;;;;;;4973971;28;20209;-76
2021/03/11 02:59:15;;;;;;;15.87;12.10;;;10.60;99.90;;;;;;4972952;28;20233;-74
2021/03/11 03:01:42;;;;;;;15.30;13.30;;;10.50;99.90;;;;;;4973244;28;20206;-76
2021/03/11 03:04:12;;;;;;;15.07;13.57;;;10.50;99.90;;;;;;4973121;28;20213;-76
2021/03/11 03:06:39;;;;;;;17.47;12.47;;;10.60;99.90;;;;;;4973634;28;20213;-75
2021/03/11 03:09:08;;;;;;;18.30;13.20;;;10.70;99.90;;;;;;4973251;28;20213;-76
2021/03/11 03:11:37;;;;;;;14.63;12.90;;;10.70;99.90;;;;;;4973154;28;20256;-77
2021/03/11 03:14:05;;;;;;;19.13;13.33;;;10.70;99.90;;;;;;4972922;28;20212;-77
2021/03/11 03:16:32;;;;;;;14.33;11.70;;;10.60;99.90;;;;;;4973243;28;20217;-78
2021/03/11 03:19:00;;;;;;;15.80;13.83;;;10.70;99.90;;;;;;4972232;28;20292;-79
2021/03/11 03:21:27;;;;;;;14.70;13.00;;;10.70;99.90;;;;;;4973211;28;20202;-73
2021/03/11 03:23:56;;;;;;;16.37;12.13;;;10.50;99.90;;;;;;4972927;28;20634;-74
2021/03/11 03:26:22;;;;;;;15.17;13.57;;;10.40;99.90;;;;;;4972417;28;20209;-77
2021/03/11 03:28:49;;;;;;;14.97;13.47;;;10.40;99.90;;;;;;4972873;28;20206;-72
2021/03/11 03:31:15;;;;;;;18.10;14.17;;;10.40;99.90;;;;;;4972896;28;20209;-75
2021/03/11 03:33:42;;;;;;;14.80;12.73;;;10.40;99.90;;;;;;4973078;28;20209;-72
2021/03/11 03:36:08;;;;;;;17.40;14.80;;;10.40;99.90;;;;;;4972740;28;20209;-76
2021/03/11 03:38:36;;;;;;;19.27;14.07;;;10.40;99.90;;;;;;4972490;28;20244;-78
2021/03/11 03:41:02;;;;;;;17.30;13.93;;;10.40;99.90;;;;;;4972096;28;20678;-73
2021/03/11 03:43:33;;;;;;;15.77;13.97;;;10.40;99.90;;;;;;4972568;28;20209;-76
2021/03/11 03:46:03;;;;;;;17.33;13.87;;;10.50;99.90;;;;;;4971996;28;20256;-77
2021/03/11 03:48:36;;;;;;;16.53;13.43;;;10.60;99.90;;;;;;4972812;28;20283;-73
2021/03/11 03:51:04;;;;;;;17.53;12.83;;;10.60;99.90;;;;;;4971891;28;20752;-70
2021/03/11 03:53:37;;;;;;;15.77;13.97;;;10.50;99.90;;;;;;4972705;28;20222;-72
2021/03/11 03:56:07;;;;;;;17.67;13.17;;;10.50;99.90;;;;;;4971979;28;20205;-73
2021/03/11 03:58:34;;;;;;;17.27;14.70;;;10.60;99.90;;;;;;4972624;28;20225;-71
2021/03/11 04:01:02;;;;;;;18.57;13.07;;;10.60;99.90;;;;;;4972108;28;20209;-77
2021/03/11 04:03:30;;;;;;;17.87;13.63;;;10.60;99.90;;;;;;4972393;28;20216;-74
2021/03/11 04:05:57;;;;;;;14.67;13.17;;;10.50;99.90;;;;;;4971666;28;20264;-77
2021/03/11 04:08:25;;;;;;;13.20;11.63;;;10.50;99.90;;;;;;4972256;28;20210;-78
2021/03/11 04:10:53;;;;;;;16.60;12.73;;;10.60;99.90;;;;;;4971258;28;20210;-73
2021/03/11 04:13:21;;;;;;;14.53;12.33;;;10.60;99.90;;;;;;4972460;28;20291;-75
2021/03/11 04:15:49;;;;;;;16.07;13.20;;;10.50;99.90;;;;;;4972574;28;20210;-76
2021/03/11 04:18:17;;;;;;;17.83;13.03;;;10.40;99.90;;;;;;4971977;28;20296;-75
2021/03/11 04:20:44;;;;;;;13.77;12.07;;;10.50;99.90;;;;;;4972265;28;20216;-78
2021/03/11 04:23:12;;;;;;;16.23;11.73;;;10.40;99.90;;;;;;4971716;28;20213;-72
2021/03/11 04:25:38;;;;;;;16.80;12.93;;;10.40;99.90;;;;;;4972149;28;20787;-72
2021/03/11 04:28:06;;;;;;;17.03;13.00;;;10.40;99.90;;;;;;4971385;28;20209;-79
2021/03/11 04:30:33;;;;;;;15.67;12.30;;;10.50;99.90;;;;;;4971665;28;20674;-76
2021/03/11 04:33:00;;;;;;;15.13;11.87;;;10.50;99.90;;;;;;4971756;28;20209;-73
2021/03/11 04:35:27;;;;;;;13.40;11.73;;;10.40;99.90;;;;;;4971551;28;20209;-73
2021/03/11 04:37:53;;;;;;;16.60;12.13;;;10.40;99.90;;;;;;4971341;28;20657;-73
2021/03/11 04:40:21;;;;;;;15.67;11.93;;;10.40;99.90;;;;;;4971653;28;20210;-71
2021/03/11 04:42:48;;;;;;;16.10;12.20;;;10.40;99.90;;;;;;4972333;28;20201;-72
2021/03/11 04:45:16;;;;;;;15.63;11.13;;;10.40;99.90;;;;;;4971753;28;20680;-74
2021/03/11 04:47:45;;;;;;;12.37;10.57;;;10.40;99.90;;;;;;4971960;28;20216;-76
2021/03/11 04:50:12;;;;;;;13.83;11.10;;;10.40;99.90;;;;;;4971455;28;20213;-73
2021/03/11 04:52:40;;;;;;;12.40;11.00;;;10.40;99.90;;;;;;4971464;28;20218;-74
2021/03/11 04:55:07;;;;;;;13.10;11.60;;;10.50;99.90;;;;;;4971577;28;20342;-77
2021/03/11 04:57:34;;;;;;;15.10;10.77;;;10.50;99.90;;;;;;4971562;28;20254;-74
2021/03/11 05:00:02;;;;;;;13.03;11.03;;;10.50;99.90;;;;;;4971358;28;20213;-74
2021/03/11 05:02:33;;;;;;;15.37;11.53;;;10.50;99.90;;;;;;4971379;28;20214;-77
2021/03/11 05:05:03;;;;;;;13.00;10.53;;;10.40;99.90;;;;;;4971198;28;20344;-73
2021/03/11 05:07:29;;;;;;;12.53;10.90;;;10.50;99.90;;;;;;4971366;28;20209;-73
2021/03/11 05:09:56;;;;;;;16.67;10.33;;;10.50;99.90;;;;;;4971374;28;20216;-72
2021/03/11 05:12:24;;;;;;;11.67;10.47;;;10.60;99.90;;;;;;4971459;28;20232;-70
2021/03/11 05:14:53;;;;;;;12.17;10.63;;;10.60;99.90;;;;;;4969264;28;20611;-80
2021/03/11 05:17:20;;;;;;;12.93;10.27;;;10.60;99.90;;;;;;4971675;28;20642;-78
2021/03/11 05:19:48;;;;;;;14.37;10.20;;;10.60;99.90;;;;;;4971600;28;20260;-80
2021/03/11 05:22:14;;;;;;;12.90;10.10;;;10.60;99.90;;;;;;4972605;28;20213;-76
2021/03/11 05:24:41;;;;;;;13.67;11.53;;;10.60;99.90;;;;;;4975246;28;20233;-73
2021/03/11 05:27:07;;;;;;;16.50;10.37;;;10.60;99.90;;;;;;4974941;28;20205;-71
2021/03/11 05:29:34;;;;;;;15.70;10.77;;;10.60;99.90;;;;;;4975106;28;20220;-72
2021/03/11 05:32:00;;;;;;;13.00;10.50;;;10.60;99.90;;;;;;4974742;28;20252;-72
2021/03/11 05:34:26;;;;;;;12.93;9.93;;;10.60;99.90;;;;;;4975393;28;20205;-74
2021/03/11 05:36:55;;;;;;;14.13;10.37;;;10.60;99.90;;;;;;4974595;28;20217;-76
2021/03/11 05:39:21;;;;;;;12.83;9.87;;;10.60;99.90;;;;;;4974640;28;20789;-72
2021/03/11 05:41:48;;;;;;;10.83;9.73;;;10.70;99.90;;;;;;4975418;28;20209;-75
2021/03/11 05:44:15;;;;;;;13.40;10.17;;;10.60;99.90;;;;;;4974620;28;20205;-76
2021/03/11 05:46:42;;;;;;;12.33;11.13;;;10.70;99.90;;;;;;4974835;28;20749;-73
2021/03/11 05:49:09;;;;;;;13.03;9.27;;;10.70;99.90;;;;;;4974225;28;20214;-73
2021/03/11 05:51:36;;;;;;;12.40;9.73;;;10.70;99.90;;;;;;4974860;28;20215;-72
2021/03/11 05:54:04;;;;;;;11.83;9.00;;;10.70;99.90;;;;;;4973351;28;20220;-75
2021/03/11 05:56:31;;;;;;;12.97;10.43;;;10.70;99.90;;;;;;4971988;28;20221;-73
2021/03/11 05:58:57;;;;;;;13.30;9.43;;;10.70;99.90;;;;;;4974042;28;20586;-73
2021/03/11 06:01:25;;;;;;;13.87;10.57;;;10.70;99.90;;;;;;4974236;28;20210;-73
2021/03/11 06:03:55;;;;;;;13.20;10.17;;;10.70;99.90;;;;;;4973884;28;20263;-71
2021/03/11 06:06:22;;;;;;;10.77;9.10;;;10.70;99.90;;;;;;4974207;28;20220;-74
2021/03/11 06:08:53;;;;;;;9.17;8.17;;;10.70;99.90;;;;;;4974035;28;20700;-72
2021/03/11 06:11:22;;;;;;;11.30;10.10;;;10.70;99.90;;;;;;4974265;28;20237;-75
2021/03/11 06:13:50;;;;;;;14.03;9.63;;;10.70;99.90;;;;;;4974437;28;20697;-73
2021/03/11 06:16:21;;;;;;;12.33;10.07;;;10.70;99.90;;;;;;4974093;28;20208;-72
2021/03/11 06:18:50;;;;;;;11.23;9.33;;;10.70;99.90;;;;;;4974473;28;20233;-73
2021/03/11 06:21:17;;;;;;;11.27;8.40;;;10.70;99.90;;;;;;4974311;28;20565;-73
2021/03/11 06:23:44;;;;;;;12.10;9.30;;;10.70;99.90;;;;;;4974082;28;20213;-73
2021/03/11 06:26:12;;;;;;;14.17;9.27;;;10.70;99.90;;;;;;4973458;28;20605;-73
2021/03/11 06:28:57;;;;;;;11.87;9.00;;;10.80;99.90;;;;;;4974070;28;20216;-72
2021/03/11 06:31:26;;;;;;;14.17;9.60;;;10.80;99.90;;;;;;4973853;28;20567;-73
2021/03/11 06:33:53;;;;;;;10.97;9.43;;;10.90;99.90;;;;;;4972457;28;20285;-73
2021/03/11 06:36:21;;;;;;;11.07;9.67;;;10.90;99.90;;;;;;4973847;28;20253;-73
2021/03/11 06:38:48;;;;;;;12.90;9.50;;;10.90;99.90;;;;;;4973363;28;20628;-72
2021/03/11 06:41:15;;;;;;;13.10;10.57;;;10.90;99.90;;;;;;4973636;28;20261;-72
2021/03/11 06:43:52;;;;;;;15.20;10.73;;;10.90;99.90;;;;;;4973421;28;20226;-72
2021/03/11 06:46:21;;;;;;;14.77;11.13;;;10.90;99.90;;;;;;4973973;28;20581;-73
2021/03/11 06:48:48;;;;;;;16.33;13.10;;;10.90;99.90;;;;;;4973417;28;20213;-72
2021/03/11 06:51:19;;;;;;;16.70;10.93;;;10.90;99.90;;;;;;4973706;28;20209;-77
2021/03/11 06:53:57;;;;;;;17.13;12.70;;;10.90;99.90;;;;;;4973918;28;20281;-73
2021/03/11 06:56:25;;;;;;;17.73;13.03;;;11.00;99.90;;;;;;4963263;28;20629;-73
2021/03/11 06:59:00;;;;;;;20.10;12.10;;;11.10;99.90;;;;;;4972641;28;20717;-72
2021/03/11 07:01:29;;;;;;;18.57;12.07;;;11.20;99.90;;;;;;4962630;28;20291;-74
2021/03/11 07:03:58;;;;;;;16.93;12.90;;;11.20;99.90;;;;;;4972915;28;20213;-73
2021/03/11 07:06:30;;;;;;;16.37;11.43;;;11.20;99.90;;;;;;4973428;28;20206;-72
2021/03/11 07:08:57;;;;;;;15.73;12.20;;;11.10;99.90;;;;;;4972831;28;20213;-75
2021/03/11 07:11:25;;;;;;;17.17;11.97;;;11.10;99.90;;;;;;4973359;28;20261;-72
2021/03/11 07:13:54;;;;;;;17.97;11.60;;;11.00;99.90;;;;;;4972886;28;20635;-72
2021/03/11 07:16:23;;;;;;;28.90;13.03;;;11.10;99.90;;;;;;4973237;28;20454;-72
2021/03/11 07:19:12;;;;;;;13.27;10.97;;;11.10;99.90;;;;;;4972884;28;20225;-72
2021/03/11 07:21:44;;;;;;;15.10;11.70;;;11.00;99.90;;;;;;4973046;28;20221;-76
2021/03/11 07:24:11;;;;;;;14.50;10.17;;;11.00;99.90;;;;;;4972382;28;20213;-73
2021/03/11 07:26:38;;;;;;;15.90;11.47;;;11.00;99.90;;;;;;4972759;28;20210;-75
2021/03/11 07:29:18;;;;;;;14.93;11.27;;;11.00;99.90;;;;;;4972550;28;20217;-75
2021/03/11 07:31:45;;;;;;;10.77;9.70;;;11.00;99.90;;;;;;4973101;28;20206;-73
2021/03/11 07:34:13;;;;;;;18.93;10.40;;;11.10;99.90;;;;;;4972293;28;20591;-77
2021/03/11 07:36:40;;;;;;;15.53;11.63;;;11.20;99.90;;;;;;4972611;28;20209;-73
2021/03/11 07:39:09;;;;;;;11.93;9.07;;;11.30;99.90;;;;;;4970140;28;20235;-73
2021/03/11 07:41:36;;;;;;;9.17;8.27;;;11.70;99.90;;;;;;4971604;28;20216;-75
2021/03/11 07:44:04;;;;;;;12.20;10.50;;;12.00;99.90;;;;;;4969977;28;20213;-74
2021/03/11 07:46:31;;;;;;;11.40;9.23;;;12.10;99.90;;;;;;4971322;28;20233;-75
2021/03/11 07:48:58;;;;;;;14.27;9.50;;;12.40;99.90;;;;;;4972183;28;20205;-75
2021/03/11 07:51:26;;;;;;;11.00;9.90;;;12.30;99.90;;;;;;4972613;28;20202;-77
2021/03/11 07:53:52;;;;;;;16.27;10.70;;;12.50;99.90;;;;;;4972215;28;20242;-76
2021/03/11 07:56:19;;;;;;;18.10;9.57;;;13.10;99.90;;;;;;4972548;28;20210;-77
2021/03/11 07:58:46;;;;;;;11.93;9.87;;;13.00;99.90;;;;;;4972613;28;20245;-80
2021/03/11 08:01:15;;;;;;;15.45;10.05;;;13.10;99.90;;;;;;4970625;28;20666;-76
2021/03/11 08:03:46;;;;;;;11.53;8.73;;;13.20;99.90;;;;;;4973113;28;20217;-76
2021/03/11 08:06:24;;;;;;;13.23;9.80;;;13.70;99.90;;;;;;4971550;28;20205;-76
2021/03/11 08:08:51;;;;;;;14.30;10.07;;;14.10;99.90;;;;;;4972369;28;20292;-76
2021/03/11 08:11:37;;;;;;;11.27;9.32;;;14.50;99.90;;;;;;4966096;28;20206;-75
2021/03/11 08:14:20;;;;;;;12.60;9.32;;;15.00;99.90;;;;;;4971205;28;20220;-76
2021/03/11 08:16:47;;;;;;;11.32;8.75;;;15.40;99.90;;;;;;4969209;28;20262;-76
2021/03/11 08:19:47;;;;;;;12.02;8.55;;;15.20;99.90;;;;;;4971084;28;20237;-76
2021/03/11 08:22:14;;;;;;;13.38;9.13;;;15.50;99.90;;;;;;4968906;28;20205;-76
2021/03/11 08:24:46;;;;;;;11.93;8.88;;;15.40;99.90;;;;;;4971911;28;20252;-76
2021/03/11 08:27:39;;;;;;;13.10;9.50;;;15.10;99.90;;;;;;4971537;28;20213;-76
2021/03/11 08:30:07;;;;;;;10.80;7.63;;;15.30;99.90;;;;;;4970251;28;20294;-76
2021/03/11 08:32:47;;;;;;;11.25;8.20;;;15.70;99.90;;;;;;4971676;28;20568;-76
2021/03/11 08:35:36;;;;;;;12.02;8.85;;;17.10;99.90;;;;;;4965471;28;20211;-76
2021/03/11 08:38:41;;;;;;;8.63;7.32;;;19.00;99.90;;;;;;4965485;28;20236;-76
2021/03/11 08:41:08;;;;;;;10.82;8.23;;;16.80;99.90;;;;;;4961836;28;20256;-76
2021/03/11 08:43:51;;;;;;;9.73;8.45;;;16.70;99.90;;;;;;4971584;28;20210;-76
2021/03/11 08:46:19;;;;;;;10.88;8.88;;;17.50;99.90;;;;;;4962542;28;20636;-76
2021/03/11 08:48:47;;;;;;;9.35;7.05;;;17.20;99.90;;;;;;4971724;28;20209;-74
2021/03/11 08:51:35;;;;;;;7.85;6.13;;;18.60;99.90;;;;;;4971553;28;20216;-75
2021/03/11 08:54:04;;;;;;;6.90;6.28;;;20.00;99.90;;;;;;4970735;28;20697;-74
2021/03/11 08:56:41;;;;;;;6.10;5.55;;;19.50;99.90;;;;;;4972229;28;20221;-75
2021/03/11 08:59:15;;;;;;;6.97;6.05;;;20.60;99.90;;;;;;4976392;28;20232;-75
2021/03/11 09:01:44;;;;;;;10.18;5.55;;;18.90;99.90;;;;;;4971937;28;20212;-75
2021/03/11 09:04:37;;;;;;;5.90;5.30;;;18.00;99.90;;;;;;4976182;28;20220;-75
2021/03/11 09:07:05;;;;;;;5.78;5.15;;;18.90;99.90;;;;;;4977595;28;20241;-74
2021/03/11 09:09:35;;;;;;;11.43;6.50;;;20.10;99.90;;;;;;4977930;28;20325;-77
2021/03/11 09:12:05;;;;;;;7.70;6.05;;;19.30;99.90;;;;;;4977431;28;20253;-84
2021/03/11 09:14:31;;;;;;;9.45;5.15;;;19.50;99.90;;;;;;4977456;28;20213;-76
2021/03/11 09:17:07;;;;;;;6.00;4.72;;;19.60;99.90;;;;;;4977506;28;20213;-76
2021/03/11 09:19:41;;;;;;;7.90;4.85;;;20.60;99.90;;;;;;4977523;28;20572;-77
2021/03/11 09:22:23;;;;;;;5.90;5.30;;;20.40;99.90;;;;;;4977595;28;20212;-79
2021/03/11 09:25:13;;;;;;;6.03;4.20;;;21.50;99.90;;;;;;4977168;28;20202;-78
2021/03/11 09:27:42;;;;;;;5.50;4.05;;;22.80;99.90;;;;;;4976053;28;20205;-77
2021/03/11 09:30:11;;;;;;;4.53;3.58;;;24.20;99.90;;;;;;4966404;28;20218;-76
2021/03/11 09:32:39;;;;;;;5.45;3.72;;;23.20;99.90;;;;;;4966692;28;20209;-76
2021/03/11 09:35:08;;;;;;;6.05;3.47;;;20.80;99.90;;;;;;4976862;28;20210;-76
2021/03/11 09:37:53;;;;;;;4.22;2.95;;;20.00;99.90;;;;;;4977431;28;20217;-77
2021/03/11 09:40:25;;;;;;;3.90;2.63;;;19.00;99.90;;;;;;4977342;28;20209;-75
2021/03/11 09:43:17;;;;;;;2.60;2.28;;;19.80;99.90;;;;;;4977368;28;20225;-75
2021/03/11 09:45:47;;;;;;;4.90;3.30;;;21.20;99.90;;;;;;4977683;28;20206;-76
2021/03/11 09:48:16;;;;;;;3.80;3.17;;;22.80;99.90;;;;;;4977509;28;20228;-77
2021/03/11 09:50:56;;;;;;;3.33;2.50;;;22.10;99.90;;;;;;4977416;28;20206;-76
2021/03/11 09:53:23;;;;;;;2.42;2.22;;;21.50;99.90;;;;;;4977437;28;20213;-76
2021/03/11 09:55:55;;;;;;;4.10;2.00;;;21.10;99.90;;;;;;4976054;28;20260;-76
2021/03/11 09:58:22;;;;;;;2.83;2.38;;;21.50;99.90;;;;;;4977088;28;21131;-75
2021/03/11 10:00:49;;;;;;;2.55;2.05;;;21.60;99.90;;;;;;4975779;28;20670;-78
2021/03/11 10:03:26;;;;;;;3.17;2.55;;;24.20;99.90;;;;;;4977315;28;20205;-77
2021/03/11 10:05:55;;;;;;;2.53;2.28;;;26.40;99.90;;;;;;4976958;28;20201;-78
2021/03/11 10:08:36;;;;;;;2.78;1.95;;;26.00;99.90;;;;;;4966166;28;20314;-78
2021/03/11 10:11:12;;;;;;;2.25;2.08;;;24.10;99.90;;;;;;4973990;28;20264;-76
2021/03/11 10:13:46;;;;;;;2.22;1.90;;;22.70;99.90;;;;;;4974353;28;20209;-78
2021/03/11 10:16:14;;;;;;;2.67;1.85;;;21.70;99.90;;;;;;4964119;28;20696;-77
2021/03/11 10:19:05;;;;;;;3.25;1.92;;;23.90;99.90;;;;;;4973994;28;20235;-75
2021/03/11 10:21:33;;;;;;;3.65;1.92;;;25.90;99.90;;;;;;4973983;28;20241;-77
2021/03/11 10:23:59;;;;;;;3.28;1.77;;;26.20;99.90;;;;;;4973832;28;20205;-79
2021/03/11 10:26:31;;;;;;;3.70;2.78;;;24.80;99.90;;;;;;4973647;28;20251;-78
2021/03/11 10:29:04;;;;;;;3.53;1.85;;;24.60;99.90;;;;;;4973641;28;20209;-79
2021/03/11 10:31:31;;;;;;;2.53;2.15;;;24.80;99.90;;;;;;4973685;28;20210;-78
2021/03/11 10:34:02;;;;;;;4.32;2.22;;;25.30;99.90;;;;;;4972637;28;20205;-78
2021/03/11 10:36:29;;;;;;;4.05;1.80;;;25.00;99.90;;;;;;4972874;28;20225;-79
2021/03/11 10:39:08;;;;;;;2.45;1.65;;;23.70;99.90;;;;;;4972742;28;20237;-76
2021/03/11 10:41:37;;;;;;;2.08;1.88;;;21.30;99.90;;;;;;4973553;28;20655;-78
2021/03/11 10:44:05;;;;;;;1.92;1.58;;;20.00;99.90;;;;;;4973040;28;20209;-76
2021/03/11 10:46:32;;;;;;;3.08;1.77;;;20.00;99.90;;;;;;4974101;28;20589;-77
2021/03/11 10:48:59;;;;;;;2.25;1.42;;;19.80;99.90;;;;;;4973031;28;20237;-76
2021/03/11 10:51:28;;;;;;;4.05;2.05;;;19.50;99.90;;;;;;4973788;28;20214;-76
2021/03/11 10:53:54;;;;;;;3.08;1.58;;;19.70;99.90;;;;;;4973068;28;20568;-77
2021/03/11 10:56:21;;;;;;;3.00;1.58;;;19.90;99.90;;;;;;4973083;28;20305;-76
2021/03/11 10:58:48;;;;;;;1.70;1.60;;;19.80;99.90;;;;;;4973603;28;20233;-75
2021/03/11 11:01:17;;;;;;;2.50;1.65;;;19.50;99.90;;;;;;4973291;28;20264;-76
2021/03/11 11:03:45;;;;;;;2.03;1.77;;;19.70;99.90;;;;;;4971597;28;20216;-77
2021/03/11 11:06:12;;;;;;;3.83;1.40;;;19.50;99.90;;;;;;4973004;28;20232;-76
2021/03/11 11:08:43;;;;;;;2.15;1.80;;;19.90;99.90;;;;;;4973167;28;20210;-77
2021/03/11 11:11:10;;;;;;;5.10;2.28;;;19.90;99.90;;;;;;4972402;28;20205;-75
2021/03/11 11:13:36;;;;;;;3.58;2.67;;;19.70;99.90;;;;;;4973053;28;20210;-76
2021/03/11 11:16:04;;;;;;;3.17;1.92;;;19.20;99.90;;;;;;4972630;28;20214;-77
2021/03/11 11:18:31;;;;;;;2.80;1.80;;;18.90;99.90;;;;;;4972916;28;20713;-76
2021/03/11 11:20:58;;;;;;;2.65;1.48;;;19.00;99.90;;;;;;4972415;28;20584;-77
2021/03/11 11:23:25;;;;;;;5.53;2.15;;;19.40;99.90;;;;;;4973007;28;20205;-76
2021/03/11 11:25:51;;;;;;;2.42;1.80;;;18.90;99.90;;;;;;4972677;28;20733;-76
2021/03/11 11:28:18;;;;;;;2.63;1.88;;;18.60;99.90;;;;;;4973298;28;20240;-77
2021/03/11 11:30:44;;;;;;;2.10;1.58;;;19.00;99.90;;;;;;4960200;28;20206;-78
2021/03/11 11:33:12;;;;;;;1.80;1.70;;;18.80;99.90;;;;;;4972901;28;20652;-77
2021/03/11 11:35:38;;;;;;;3.95;1.88;;;19.10;99.90;;;;;;4972736;28;20205;-76
2021/03/11 11:38:05;;;;;;;6.22;3.65;;;19.00;99.90;;;;;;4972387;28;20276;-77
2021/03/11 11:40:31;;;;;;;2.05;1.55;;;19.30;99.90;;;;;;4972263;28;20213;-77
2021/03/11 11:42:58;;;;;;;4.43;2.03;;;19.10;99.90;;;;;;4972747;28;20209;-77
2021/03/11 11:45:25;;;;;;;1.70;1.60;;;19.30;99.90;;;;;;4971939;28;20205;-76
2021/03/11 11:47:51;;;;;;;3.55;1.92;;;19.30;99.90;;;;;;4969972;28;20845;-75
2021/03/11 11:50:19;;;;;;;3.33;1.90;;;19.50;99.90;;;;;;4971987;28;20654;-77
2021/03/11 11:52:45;;;;;;;1.42;1.33;;;19.00;99.90;;;;;;4972461;28;20696;-76
2021/03/11 11:55:12;;;;;;;3.30;1.50;;;19.30;99.90;;;;;;4971792;28;20225;-78
2021/03/11 11:57:40;;;;;;;1.67;1.50;;;19.60;99.90;;;;;;4971771;28;20209;-77
2021/03/11 12:00:09;;;;;;;3.92;2.97;;;19.50;99.90;;;;;;4971954;28;20241;-76
2021/03/11 12:02:36;;;;;;;1.52;1.42;;;19.30;99.90;;;;;;4971678;28;20276;-76
2021/03/11 12:05:03;;;;;;;2.53;1.70;;;19.60;99.90;;;;;;4970559;28;20264;-76
2021/03/11 12:07:31;;;;;;;3.75;1.63;;;19.90;99.90;;;;;;4971641;28;20689;-77
2021/03/11 12:09:58;;;;;;;5.45;3.17;;;20.00;99.90;;;;;;4972100;28;20218;-76
2021/03/11 12:12:25;;;;;;;6.40;4.15;;;19.50;99.90;;;;;;4972045;28;20236;-75
2021/03/11 12:14:52;;;;;;;10.52;5.32;;;19.70;99.90;;;;;;4971658;28;20210;-76
2021/03/11 12:17:18;;;;;;;6.13;2.78;;;19.70;99.90;;;;;;4971402;28;20236;-79
2021/03/11 12:19:45;;;;;;;2.00;1.80;;;19.90;99.90;;;;;;4972143;28;20233;-78
2021/03/11 12:22:11;;;;;;;2.42;1.90;;;19.80;99.90;;;;;;4971586;28;20283;-79
2021/03/11 12:24:39;;;;;;;5.07;3.25;;;20.20;99.90;;;;;;4971799;28;20557;-77
2021/03/11 12:27:05;;;;;;;1.70;1.60;;;20.20;99.90;;;;;;4971687;28;20210;-77
2021/03/11 12:29:32;;;;;;;4.40;2.17;;;20.50;99.90;;;;;;4971871;28;20596;-79
2021/03/11 12:31:58;;;;;;;4.43;2.35;;;20.20;99.90;;;;;;4970725;28;20216;-79
2021/03/11 12:34:25;;;;;;;3.13;1.73;;;20.60;99.90;;;;;;4971717;28;20268;-78
2021/03/11 12:36:52;;;;;;;1.85;1.75;;;20.50;99.90;;;;;;4971482;28;20256;-77
2021/03/11 12:39:18;;;;;;;2.38;1.73;;;21.10;99.90;;;;;;4972082;28;20237;-78
2021/03/11 12:41:45;;;;;;;2.42;1.83;;;20.60;99.90;;;;;;4971858;28;20212;-77
2021/03/11 12:44:12;;;;;;;3.38;3.08;;;20.30;99.90;;;;;;4971290;28;20214;-79
2021/03/11 12:46:38;;;;;;;2.30;1.80;;;20.80;99.90;;;;;;4971622;28;20209;-76